Time;durP1;ratioP1;P1;durP2;ratioP2;P2;SDS_P1;SDS_P2;PMS_P1;PMS_P2;Temp;Humidity;BMP_temperature;BMP_pressure;BME280_temperature;BME280_humidity;BME280_pressure;Samples;Min_cycle;Max_cycle;Signal;HPM_P1;HPM_P2
2022/11/26 00:00:26;;;;;;;15.50;5.95;;;4.20;99.90;;;;;;6185805;23;20063;-79
2022/11/26 00:02:52;;;;;;;16.88;6.30;;;4.10;99.90;;;;;;6186255;23;20017;-79
2022/11/26 00:05:19;;;;;;;15.43;5.85;;;4.20;99.90;;;;;;6159581;23;20017;-80
2022/11/26 00:07:54;;;;;;;20.15;6.05;;;4.10;99.90;;;;;;6159375;23;20028;-80
2022/11/26 00:10:29;;;;;;;20.50;6.70;;;4.10;99.90;;;;;;6186260;23;20017;-80
2022/11/26 00:12:56;;;;;;;13.48;5.30;;;4.00;99.90;;;;;;6185847;23;20342;-79
2022/11/26 00:15:28;;;;;;;17.85;5.55;;;4.10;99.90;;;;;;6185678;23;20354;-79
2022/11/26 00:17:54;;;;;;;17.48;5.82;;;4.10;99.90;;;;;;6186221;23;20013;-80
2022/11/26 00:20:28;;;;;;;15.82;5.53;;;4.10;99.90;;;;;;6185923;23;20021;-80
2022/11/26 00:22:57;;;;;;;19.35;6.13;;;4.10;99.90;;;;;;6159596;23;20442;-79
2022/11/26 00:25:47;;;;;;;19.77;5.63;;;4.00;99.90;;;;;;6161537;23;20480;-80
2022/11/26 00:28:29;;;;;;;20.20;5.70;;;4.00;99.90;;;;;;6187769;23;20024;-80
2022/11/26 00:30:58;;;;;;;18.00;5.97;;;4.10;99.90;;;;;;6161507;23;20049;-80
2022/11/26 00:33:24;;;;;;;15.73;5.43;;;4.20;99.90;;;;;;6188045;23;20013;-79
2022/11/26 00:35:54;;;;;;;13.88;5.80;;;4.10;99.90;;;;;;6161409;23;20017;-79
2022/11/26 00:38:21;;;;;;;14.13;5.47;;;4.10;99.90;;;;;;6188031;23;20015;-79
2022/11/26 00:40:47;;;;;;;19.25;5.43;;;4.10;99.90;;;;;;6161414;23;20444;-79
2022/11/26 00:43:14;;;;;;;16.52;6.15;;;4.10;99.90;;;;;;6161244;23;20021;-79
2022/11/26 00:45:40;;;;;;;15.48;5.68;;;4.10;99.90;;;;;;6187591;23;20511;-80
2022/11/26 00:48:06;;;;;;;17.20;5.82;;;4.10;99.90;;;;;;6161223;23;20402;-79
2022/11/26 00:50:38;;;;;;;14.18;6.18;;;4.20;99.90;;;;;;6187922;23;20495;-79
2022/11/26 00:53:04;;;;;;;24.10;6.45;;;4.10;99.90;;;;;;6187990;23;20049;-80
2022/11/26 00:55:37;;;;;;;22.30;6.13;;;4.20;99.90;;;;;;6161141;23;20096;-79
2022/11/26 00:58:04;;;;;;;15.82;5.20;;;4.10;99.90;;;;;;6187590;23;20025;-79
2022/11/26 01:00:32;;;;;;;20.67;5.75;;;4.20;99.90;;;;;;6161198;23;20071;-79
2022/11/26 01:02:59;;;;;;;23.38;7.75;;;4.10;99.90;;;;;;6187753;23;20024;-80
2022/11/26 01:05:29;;;;;;;18.33;5.60;;;4.20;99.90;;;;;;6161177;23;20070;-79
2022/11/26 01:07:57;;;;;;;22.58;5.82;;;4.10;99.90;;;;;;6161044;23;20509;-79
2022/11/26 01:10:27;;;;;;;18.25;6.18;;;4.20;99.90;;;;;;6187463;23;20345;-80
2022/11/26 01:12:53;;;;;;;24.52;6.82;;;4.40;99.90;;;;;;6161017;23;20044;-79
2022/11/26 01:15:22;;;;;;;26.65;7.13;;;4.40;99.90;;;;;;6160578;23;20361;-79
2022/11/26 01:17:48;;;;;;;24.75;6.10;;;4.60;99.90;;;;;;6161016;23;20017;-80
2022/11/26 01:20:20;;;;;;;20.10;6.20;;;4.60;99.90;;;;;;6161008;23;20024;-80
2022/11/26 01:22:46;;;;;;;22.50;6.25;;;4.60;99.90;;;;;;6161001;23;20029;-80
2022/11/26 01:25:12;;;;;;;22.50;6.53;;;4.60;99.90;;;;;;6161006;23;20090;-80
2022/11/26 01:27:37;;;;;;;21.25;5.88;;;4.50;99.90;;;;;;6187969;23;20020;-80
2022/11/26 01:30:10;;;;;;;15.00;5.32;;;4.60;99.90;;;;;;6187548;23;20013;-79
2022/11/26 01:32:36;;;;;;;23.35;5.90;;;4.60;99.90;;;;;;6187215;23;20337;-79
2022/11/26 01:35:01;;;;;;;18.23;6.18;;;4.60;99.90;;;;;;6187446;23;20478;-79
2022/11/26 01:37:27;;;;;;;24.60;6.63;;;4.60;99.90;;;;;;6160899;23;20350;-80
2022/11/26 01:39:52;;;;;;;22.60;5.93;;;4.60;99.90;;;;;;6160859;23;20326;-80
2022/11/26 01:42:42;;;;;;;19.35;5.25;;;4.70;99.90;;;;;;6187086;23;20341;-79
2022/11/26 01:45:17;;;;;;;15.57;5.55;;;4.70;99.90;;;;;;6143781;23;20460;-80
2022/11/26 01:47:47;;;;;;;20.70;5.53;;;4.70;99.90;;;;;;6160639;23;20472;-79
2022/11/26 01:50:30;;;;;;;15.82;5.82;;;4.70;99.90;;;;;;6187090;23;20068;-80
2022/11/26 01:53:11;;;;;;;17.85;6.97;;;4.70;99.90;;;;;;6160641;23;20017;-79
2022/11/26 01:55:43;;;;;;;20.90;6.80;;;4.70;99.90;;;;;;6187487;23;20020;-79
2022/11/26 01:58:12;;;;;;;16.42;6.00;;;4.80;99.90;;;;;;6187209;23;20012;-80
2022/11/26 02:00:38;;;;;;;20.85;7.32;;;4.80;99.90;;;;;;6160656;23;20028;-80
2022/11/26 02:03:04;;;;;;;20.17;6.03;;;4.70;99.90;;;;;;6186942;23;20084;-79
2022/11/26 02:05:37;;;;;;;21.88;4.78;;;4.70;99.90;;;;;;6186900;23;20371;-79
2022/11/26 02:08:03;;;;;;;18.08;5.88;;;4.80;99.90;;;;;;6186881;23;20021;-79
2022/11/26 02:10:28;;;;;;;27.17;5.40;;;4.80;99.90;;;;;;6160537;23;20016;-79
2022/11/26 02:12:54;;;;;;;18.90;5.78;;;4.70;99.90;;;;;;6160430;23;20017;-79
2022/11/26 02:15:24;;;;;;;19.58;5.53;;;4.60;99.90;;;;;;6160230;23;20017;-79
2022/11/26 02:18:00;;;;;;;17.83;5.75;;;4.70;99.90;;;;;;6187361;23;20021;-79
2022/11/26 02:21:01;;;;;;;22.60;4.82;;;4.70;99.90;;;;;;6187109;23;20017;-79
2022/11/26 02:23:31;;;;;;;22.45;5.45;;;4.70;99.90;;;;;;6187096;23;20028;-79
2022/11/26 02:26:05;;;;;;;20.40;5.57;;;4.60;99.90;;;;;;6160370;23;20088;-79
2022/11/26 02:28:46;;;;;;;16.75;4.78;;;4.60;99.90;;;;;;6186882;23;20021;-79
2022/11/26 02:31:18;;;;;;;25.15;5.32;;;4.60;99.90;;;;;;6186822;23;20165;-79
2022/11/26 02:33:52;;;;;;;17.08;4.97;;;4.70;99.90;;;;;;6187654;23;20063;-80
2022/11/26 02:36:28;;;;;;;26.45;5.88;;;4.70;99.90;;;;;;6160300;23;20017;-79
2022/11/26 02:38:54;;;;;;;19.95;5.13;;;4.80;99.90;;;;;;6186592;23;20505;-79
2022/11/26 02:41:20;;;;;;;24.55;5.18;;;4.90;99.90;;;;;;6160250;23;20090;-79
2022/11/26 02:43:46;;;;;;;22.02;5.00;;;4.80;99.90;;;;;;6186915;23;20013;-79
2022/11/26 02:46:16;;;;;;;20.83;5.30;;;4.90;99.90;;;;;;6159901;23;20079;-79
2022/11/26 02:48:48;;;;;;;18.10;5.68;;;4.90;99.90;;;;;;6161250;23;20025;-79
2022/11/26 02:51:18;;;;;;;20.98;6.35;;;4.90;99.90;;;;;;6186824;23;20017;-79
2022/11/26 02:53:46;;;;;;;21.80;5.63;;;4.90;99.90;;;;;;6186804;23;20013;-79
2022/11/26 02:56:25;;;;;;;24.13;5.75;;;4.90;99.90;;;;;;6160030;23;20087;-79
2022/11/26 02:58:53;;;;;;;20.63;5.63;;;5.00;99.90;;;;;;6186777;23;20020;-79
2022/11/26 03:01:28;;;;;;;25.98;6.63;;;5.00;99.90;;;;;;6160082;23;20048;-79
2022/11/26 03:03:57;;;;;;;24.30;7.47;;;5.00;99.90;;;;;;6160056;23;20017;-79
2022/11/26 03:06:26;;;;;;;25.98;5.95;;;5.10;99.90;;;;;;6186562;23;20008;-79
2022/11/26 03:08:53;;;;;;;23.02;6.70;;;5.00;99.90;;;;;;6159965;23;20017;-79
2022/11/26 03:11:19;;;;;;;17.85;5.90;;;5.00;99.90;;;;;;6159971;23;20084;-79
2022/11/26 03:13:46;;;;;;;23.73;6.22;;;5.00;99.90;;;;;;6160004;23;20025;-79
2022/11/26 03:16:12;;;;;;;21.83;6.85;;;5.00;99.90;;;;;;6159866;23;20021;-79
2022/11/26 03:18:38;;;;;;;24.25;6.55;;;4.90;99.90;;;;;;6159930;23;20405;-79
2022/11/26 03:21:03;;;;;;;19.52;6.40;;;4.90;99.90;;;;;;6186209;23;20024;-79
2022/11/26 03:23:29;;;;;;;26.92;7.15;;;4.90;99.90;;;;;;6159846;23;20092;-79
2022/11/26 03:25:54;;;;;;;26.08;7.32;;;5.00;99.90;;;;;;6159847;23;20095;-79
2022/11/26 03:28:20;;;;;;;22.40;6.43;;;4.90;99.90;;;;;;6186412;23;20089;-80
2022/11/26 03:30:49;;;;;;;18.60;6.55;;;4.80;99.90;;;;;;6159870;23;20092;-79
2022/11/26 03:33:17;;;;;;;23.83;6.45;;;4.90;99.90;;;;;;6186437;23;20013;-79
2022/11/26 03:35:43;;;;;;;19.08;6.70;;;4.90;99.90;;;;;;6186431;23;20052;-79
2022/11/26 03:38:09;;;;;;;23.77;8.02;;;4.90;99.90;;;;;;6159763;23;20067;-79
2022/11/26 03:40:34;;;;;;;21.60;8.13;;;5.00;99.90;;;;;;6186415;23;20506;-79
2022/11/26 03:43:00;;;;;;;26.08;7.45;;;4.90;99.90;;;;;;6159715;23;20099;-79
2022/11/26 03:45:26;;;;;;;19.25;6.85;;;4.80;99.90;;;;;;6159711;23;20021;-80
2022/11/26 03:47:51;;;;;;;25.60;8.13;;;4.90;99.90;;;;;;6186249;23;20028;-80
2022/11/26 03:50:17;;;;;;;29.42;7.68;;;4.90;99.90;;;;;;6159828;23;20020;-80
2022/11/26 03:52:42;;;;;;;24.77;8.55;;;4.90;99.90;;;;;;6185978;23;20458;-79
2022/11/26 03:55:08;;;;;;;22.92;7.03;;;4.90;99.90;;;;;;6159672;23;20021;-79
2022/11/26 03:57:34;;;;;;;21.58;7.80;;;4.90;99.90;;;;;;6185604;23;20059;-79
2022/11/26 04:00:00;;;;;;;21.33;7.50;;;4.90;99.90;;;;;;6159481;23;20092;-80
2022/11/26 04:02:25;;;;;;;21.05;6.60;;;5.00;99.90;;;;;;6159585;23;20017;-79
2022/11/26 04:04:51;;;;;;;24.63;8.00;;;5.00;99.90;;;;;;6186268;23;20023;-79
2022/11/26 04:07:17;;;;;;;23.75;7.80;;;5.00;99.90;;;;;;6159410;23;20028;-79
2022/11/26 04:09:42;;;;;;;22.73;7.57;;;5.10;99.90;;;;;;6159513;23;20024;-79
2022/11/26 04:12:08;;;;;;;27.30;7.35;;;5.10;99.90;;;;;;6159485;23;20028;-79
2022/11/26 04:14:34;;;;;;;24.63;8.77;;;5.00;99.90;;;;;;6159395;23;20069;-79
2022/11/26 04:16:59;;;;;;;24.67;7.18;;;5.00;99.90;;;;;;6159514;23;20029;-79
2022/11/26 04:19:25;;;;;;;26.70;8.20;;;5.10;99.90;;;;;;6186455;23;20434;-79
2022/11/26 04:21:51;;;;;;;24.65;7.60;;;5.00;99.90;;;;;;6185741;23;20327;-79
2022/11/26 04:24:16;;;;;;;20.65;7.65;;;5.00;99.90;;;;;;6186214;23;20017;-79
2022/11/26 04:26:42;;;;;;;31.02;8.38;;;5.10;99.90;;;;;;6186113;23;20408;-79
2022/11/26 04:29:08;;;;;;;27.45;8.50;;;5.10;99.90;;;;;;6186151;23;20013;-79
2022/11/26 04:31:33;;;;;;;24.55;7.30;;;5.10;99.90;;;;;;6159526;23;20044;-79
2022/11/26 04:33:59;;;;;;;29.75;7.85;;;5.10;99.90;;;;;;6185851;23;20025;-79
2022/11/26 04:36:25;;;;;;;24.88;7.90;;;5.20;99.90;;;;;;6159452;23;20084;-79
2022/11/26 04:38:50;;;;;;;28.58;7.88;;;5.20;99.90;;;;;;6186120;23;20053;-79
2022/11/26 04:41:16;;;;;;;24.67;8.25;;;5.20;99.90;;;;;;6186051;23;20009;-79
2022/11/26 04:43:42;;;;;;;26.80;8.02;;;5.20;99.90;;;;;;6159434;23;20153;-79
2022/11/26 04:46:07;;;;;;;25.65;7.65;;;5.20;99.90;;;;;;6159399;23;20025;-79
2022/11/26 04:48:33;;;;;;;30.90;9.57;;;5.20;99.90;;;;;;6185933;23;20332;-79
2022/11/26 04:50:59;;;;;;;18.77;7.43;;;5.20;99.90;;;;;;6186017;23;20017;-79
2022/11/26 04:53:24;;;;;;;27.40;7.57;;;5.20;99.90;;;;;;6186049;23;20429;-79
2022/11/26 04:55:51;;;;;;;30.38;8.38;;;5.30;99.90;;;;;;6186168;23;20025;-80
2022/11/26 04:58:19;;;;;;;26.15;9.45;;;5.30;99.90;;;;;;6186053;23;20021;-79
2022/11/26 05:00:45;;;;;;;23.35;8.52;;;5.40;99.90;;;;;;6186013;23;20028;-79
2022/11/26 05:03:11;;;;;;;25.98;9.80;;;5.40;99.90;;;;;;6185967;23;20020;-79
2022/11/26 05:05:37;;;;;;;31.58;9.88;;;5.50;99.90;;;;;;6185931;23;20017;-79
2022/11/26 05:08:03;;;;;;;30.70;8.40;;;5.50;99.90;;;;;;6185863;23;20025;-79
2022/11/26 05:10:28;;;;;;;32.10;9.35;;;5.40;99.90;;;;;;6186888;23;20056;-79
2022/11/26 05:12:54;;;;;;;25.50;7.97;;;5.40;99.90;;;;;;6161132;23;20345;-79
2022/11/26 05:15:20;;;;;;;36.08;10.55;;;5.40;99.90;;;;;;6160915;23;20350;-79
2022/11/26 05:17:45;;;;;;;29.13;9.60;;;5.50;99.90;;;;;;6187628;23;20460;-79
2022/11/26 05:20:11;;;;;;;36.10;10.38;;;5.40;99.90;;;;;;6160962;23;20025;-79
2022/11/26 05:22:37;;;;;;;29.35;9.30;;;5.40;99.90;;;;;;6160977;23;20024;-78
2022/11/26 05:25:03;;;;;;;33.10;10.02;;;5.40;99.90;;;;;;6161067;23;20381;-79
2022/11/26 05:27:29;;;;;;;25.80;9.02;;;5.40;99.90;;;;;;6160705;23;20021;-79
2022/11/26 05:29:54;;;;;;;33.55;9.55;;;5.50;99.90;;;;;;6187191;23;20017;-79
2022/11/26 05:32:20;;;;;;;28.52;9.18;;;5.50;99.90;;;;;;6187184;23;20492;-78
2022/11/26 05:34:45;;;;;;;28.13;9.05;;;5.40;99.90;;;;;;6187466;23;20088;-79
2022/11/26 05:37:11;;;;;;;28.10;9.93;;;5.30;99.90;;;;;;6160857;23;20048;-79
2022/11/26 05:39:37;;;;;;;34.42;10.43;;;5.40;99.90;;;;;;6187440;23;20023;-79
2022/11/26 05:42:03;;;;;;;31.38;9.68;;;5.30;99.90;;;;;;6187062;23;20040;-79
2022/11/26 05:44:28;;;;;;;28.40;9.38;;;5.30;99.90;;;;;;6187086;23;20013;-79
2022/11/26 05:46:54;;;;;;;31.80;9.98;;;5.40;99.90;;;;;;6187337;23;20021;-79
2022/11/26 05:49:19;;;;;;;29.58;9.93;;;5.30;99.90;;;;;;6187372;23;20295;-78
2022/11/26 05:51:45;;;;;;;31.85;9.82;;;5.20;99.90;;;;;;6187397;23;20063;-79
2022/11/26 05:54:13;;;;;;;38.80;11.50;;;5.30;99.90;;;;;;6187092;23;20072;-79
2022/11/26 05:56:39;;;;;;;34.90;10.82;;;5.30;99.90;;;;;;6187044;23;20056;-79
2022/11/26 05:59:04;;;;;;;28.90;10.73;;;5.30;99.90;;;;;;6186943;23;20454;-78
2022/11/26 06:01:30;;;;;;;28.48;10.88;;;5.30;99.90;;;;;;6187289;23;20024;-79
2022/11/26 06:03:56;;;;;;;34.40;10.32;;;5.30;99.90;;;;;;6187220;23;20019;-78
2022/11/26 06:06:21;;;;;;;39.08;10.90;;;5.30;99.90;;;;;;6187155;23;20049;-79
2022/11/26 06:08:47;;;;;;;31.75;10.52;;;5.30;99.90;;;;;;6187211;23;20041;-79
2022/11/26 06:11:13;;;;;;;31.02;10.25;;;5.20;99.90;;;;;;6187178;23;20326;-79
2022/11/26 06:13:39;;;;;;;43.45;13.75;;;5.20;99.90;;;;;;6186812;23;20032;-79
2022/11/26 06:16:05;;;;;;;39.08;10.48;;;5.20;99.90;;;;;;6160369;23;20021;-79
2022/11/26 06:18:31;;;;;;;35.08;11.90;;;5.20;99.90;;;;;;6186694;23;20353;-79
2022/11/26 06:21:00;;;;;;;22.77;10.30;;;5.20;99.90;;;;;;6186711;23;20479;-79
2022/11/26 06:23:26;;;;;;;35.13;11.63;;;5.20;99.90;;;;;;6160845;23;20060;-79
2022/11/26 06:25:52;;;;;;;41.80;10.85;;;5.20;99.90;;;;;;6187005;23;20341;-79
2022/11/26 06:28:17;;;;;;;28.38;10.98;;;5.20;99.90;;;;;;6160289;23;20021;-79
2022/11/26 06:30:44;;;;;;;29.02;11.32;;;5.30;99.90;;;;;;6160428;23;20054;-79
2022/11/26 06:33:09;;;;;;;27.70;10.80;;;5.20;99.90;;;;;;6160303;23;20130;-79
2022/11/26 06:35:35;;;;;;;30.20;10.13;;;5.30;99.90;;;;;;6186593;23;20353;-79
2022/11/26 06:38:01;;;;;;;38.35;11.40;;;5.30;99.90;;;;;;6160382;23;20044;-79
2022/11/26 06:40:26;;;;;;;36.15;12.85;;;5.30;99.90;;;;;;6186964;23;20012;-79
2022/11/26 06:42:52;;;;;;;29.33;10.60;;;5.30;99.90;;;;;;6161270;23;20063;-79
2022/11/26 06:45:20;;;;;;;35.25;10.15;;;5.30;99.90;;;;;;6160256;23;20029;-79
2022/11/26 06:47:47;;;;;;;38.97;12.65;;;5.30;99.90;;;;;;6160101;23;20059;-79
2022/11/26 06:50:14;;;;;;;34.75;11.45;;;5.30;99.90;;;;;;6186401;23;20075;-79
2022/11/26 06:52:40;;;;;;;30.75;10.65;;;5.30;99.90;;;;;;6186891;23;20079;-79
2022/11/26 06:55:06;;;;;;;37.63;12.23;;;5.30;99.90;;;;;;6186765;23;20013;-79
2022/11/26 06:57:31;;;;;;;32.53;12.13;;;5.30;99.90;;;;;;6160138;23;20021;-79
2022/11/26 06:59:57;;;;;;;33.65;13.05;;;5.20;99.90;;;;;;6159992;23;20385;-79
2022/11/26 07:02:23;;;;;;;41.22;11.77;;;5.20;99.90;;;;;;6159851;23;20059;-79
2022/11/26 07:04:48;;;;;;;29.17;11.82;;;5.30;99.90;;;;;;6159570;23;20013;-79
2022/11/26 07:07:14;;;;;;;39.03;13.10;;;5.30;99.90;;;;;;6158338;23;20580;-79
2022/11/26 07:09:40;;;;;;;34.28;12.40;;;5.30;99.90;;;;;;6185800;23;20025;-78
2022/11/26 07:12:05;;;;;;;40.40;13.18;;;5.40;99.90;;;;;;6159971;23;20017;-79
2022/11/26 07:14:31;;;;;;;48.20;12.60;;;5.30;99.90;;;;;;6186266;23;20021;-79
2022/11/26 07:16:57;;;;;;;46.13;13.35;;;5.30;99.90;;;;;;6186026;23;20017;-78
2022/11/26 07:19:22;;;;;;;31.75;12.98;;;5.30;99.90;;;;;;6159867;23;20025;-79
2022/11/26 07:21:48;;;;;;;42.67;13.15;;;5.40;99.90;;;;;;6186444;23;20492;-79
2022/11/26 07:24:15;;;;;;;34.45;12.18;;;5.40;99.90;;;;;;6186180;23;20021;-79
2022/11/26 07:26:41;;;;;;;39.78;13.07;;;5.30;99.90;;;;;;6186375;23;20032;-79
2022/11/26 07:29:07;;;;;;;31.80;12.63;;;5.30;99.90;;;;;;6159763;23;20017;-78
2022/11/26 07:31:32;;;;;;;38.20;12.55;;;5.40;99.90;;;;;;6159752;23;20021;-78
2022/11/26 07:33:58;;;;;;;34.75;13.27;;;5.40;99.90;;;;;;6186262;23;20024;-78
2022/11/26 07:36:29;;;;;;;34.45;13.50;;;5.30;99.90;;;;;;6185940;23;20446;-78
2022/11/26 07:38:59;;;;;;;33.95;11.98;;;5.40;99.90;;;;;;6185947;23;20101;-79
2022/11/26 07:41:26;;;;;;;44.95;13.07;;;5.40;99.90;;;;;;6186296;23;20013;-79
2022/11/26 07:43:52;;;;;;;42.03;13.70;;;5.40;99.90;;;;;;6185953;23;20025;-79
2022/11/26 07:46:20;;;;;;;39.88;14.43;;;5.40;99.90;;;;;;6186252;23;20032;-79
2022/11/26 07:48:46;;;;;;;41.20;13.77;;;5.40;99.90;;;;;;6159517;23;20049;-79
2022/11/26 07:51:24;;;;;;;33.65;12.13;;;5.40;99.90;;;;;;6159614;23;20024;-79
2022/11/26 07:53:51;;;;;;;30.92;12.70;;;5.50;99.90;;;;;;6185146;23;20028;-78
2022/11/26 07:56:17;;;;;;;41.28;13.98;;;5.40;99.90;;;;;;6159321;23;20062;-78
2022/11/26 07:58:43;;;;;;;39.30;13.60;;;5.40;99.90;;;;;;6185649;23;20338;-78
2022/11/26 08:01:21;;;;;;;38.58;13.13;;;5.50;99.90;;;;;;6184896;23;20441;-78
2022/11/26 08:03:48;;;;;;;38.33;12.68;;;5.50;99.90;;;;;;6159327;23;20048;-79
2022/11/26 08:06:19;;;;;;;36.13;14.00;;;5.60;99.90;;;;;;6185775;23;20021;-79
2022/11/26 08:08:45;;;;;;;38.58;15.32;;;5.60;99.90;;;;;;6185955;23;20068;-78
2022/11/26 08:11:13;;;;;;;35.17;12.68;;;5.60;99.90;;;;;;6159334;23;20017;-79
2022/11/26 08:13:39;;;;;;;41.75;14.27;;;5.70;99.90;;;;;;6185902;23;20036;-80
2022/11/26 08:16:04;;;;;;;33.72;13.80;;;5.60;99.90;;;;;;6185255;23;20017;-80
2022/11/26 08:18:30;;;;;;;38.63;15.45;;;5.70;99.90;;;;;;6159218;23;20028;-80
2022/11/26 08:20:57;;;;;;;39.92;15.52;;;5.70;99.90;;;;;;6159336;23;20441;-79
2022/11/26 08:23:24;;;;;;;34.58;14.13;;;5.80;99.90;;;;;;6159013;23;20013;-79
2022/11/26 08:25:50;;;;;;;35.70;14.38;;;5.70;99.90;;;;;;6159124;23;20079;-80
2022/11/26 08:28:17;;;;;;;37.13;14.00;;;5.70;99.90;;;;;;6185436;23;20453;-79
2022/11/26 08:30:42;;;;;;;38.25;13.43;;;5.80;99.90;;;;;;6159195;23;20025;-79
2022/11/26 08:33:08;;;;;;;43.72;13.90;;;5.80;99.90;;;;;;6185468;23;20449;-79
2022/11/26 08:35:34;;;;;;;32.20;13.27;;;5.90;99.90;;;;;;6185606;23;20021;-79
2022/11/26 08:38:00;;;;;;;39.08;15.00;;;5.90;99.90;;;;;;6185508;23;20021;-80
2022/11/26 08:40:26;;;;;;;38.88;15.32;;;6.00;99.90;;;;;;6185523;23;20075;-79
2022/11/26 08:42:52;;;;;;;48.75;15.23;;;6.10;99.90;;;;;;6185504;23;20017;-82
2022/11/26 08:45:17;;;;;;;41.28;14.98;;;6.10;99.90;;;;;;6187195;23;20017;-87
2022/11/26 08:47:43;;;;;;;39.35;14.95;;;6.10;99.90;;;;;;6160893;23;20465;-88
2022/11/26 08:50:09;;;;;;;35.80;14.27;;;6.20;99.90;;;;;;6187394;23;20031;-86
2022/11/26 08:52:35;;;;;;;38.40;13.48;;;6.20;99.90;;;;;;6187191;23;20024;-87
2022/11/26 08:55:00;;;;;;;42.67;14.52;;;6.30;99.90;;;;;;6160837;23;20024;-79
2022/11/26 08:57:26;;;;;;;41.90;15.95;;;6.30;99.90;;;;;;6187258;23;20017;-79
2022/11/26 08:59:53;;;;;;;33.40;13.68;;;6.30;99.90;;;;;;6187306;23;20071;-80
2022/11/26 09:02:20;;;;;;;41.13;13.82;;;6.30;99.90;;;;;;6160929;23;20013;-79
2022/11/26 09:04:45;;;;;;;54.55;15.80;;;6.40;99.90;;;;;;6187244;23;20465;-80
2022/11/26 09:07:11;;;;;;;32.90;15.35;;;6.40;99.90;;;;;;6160836;23;20036;-80
2022/11/26 09:09:37;;;;;;;27.80;12.95;;;6.50;99.90;;;;;;6186679;23;20445;-81
2022/11/26 09:12:03;;;;;;;44.75;15.10;;;6.50;99.90;;;;;;6187074;23;20021;-80
2022/11/26 09:14:33;;;;;;;34.60;13.55;;;6.50;99.90;;;;;;6187421;23;20020;-79
2022/11/26 09:16:59;;;;;;;46.00;16.55;;;6.60;99.90;;;;;;6186928;23;20090;-79
2022/11/26 09:19:26;;;;;;;36.50;14.63;;;6.60;99.90;;;;;;6187006;23;20115;-79
2022/11/26 09:21:52;;;;;;;33.30;14.25;;;6.70;99.90;;;;;;6160594;23;20342;-79
2022/11/26 09:24:18;;;;;;;39.63;14.57;;;6.70;99.90;;;;;;6186727;23;20449;-79
2022/11/26 09:26:44;;;;;;;41.95;14.77;;;6.70;99.90;;;;;;6186958;23;20048;-79
2022/11/26 09:29:16;;;;;;;46.55;15.23;;;6.80;99.90;;;;;;6187104;23;20084;-78
2022/11/26 09:31:44;;;;;;;33.42;15.70;;;6.80;99.90;;;;;;6186606;23;20024;-80
2022/11/26 09:34:10;;;;;;;39.72;14.68;;;6.90;99.90;;;;;;6160466;23;20025;-80
2022/11/26 09:36:36;;;;;;;41.05;14.68;;;6.90;99.90;;;;;;6186944;23;20040;-79
2022/11/26 09:39:03;;;;;;;43.15;15.70;;;7.00;99.90;;;;;;6160535;23;20021;-79
2022/11/26 09:42:05;;;;;;;38.65;14.70;;;7.10;99.90;;;;;;6160442;23;20013;-79
2022/11/26 09:44:39;;;;;;;45.35;15.85;;;7.10;99.90;;;;;;6160156;23;20028;-80
2022/11/26 09:47:09;;;;;;;48.40;15.93;;;7.20;99.90;;;;;;6160346;23;20111;-79
2022/11/26 09:50:01;;;;;;;38.45;15.40;;;7.30;99.90;;;;;;6160251;23;20025;-79
2022/11/26 09:52:32;;;;;;;39.80;15.48;;;7.20;99.90;;;;;;6144333;23;20017;-79
2022/11/26 09:55:18;;;;;;;38.78;14.63;;;7.20;99.90;;;;;;6186993;23;20021;-79
2022/11/26 09:58:21;;;;;;;39.92;15.88;;;7.30;99.90;;;;;;6187191;23;20093;-80
2022/11/26 10:00:50;;;;;;;48.60;15.30;;;7.40;99.90;;;;;;6186358;23;20464;-78
2022/11/26 10:03:17;;;;;;;46.08;17.25;;;7.40;99.90;;;;;;6158060;23;20028;-80
2022/11/26 10:06:05;;;;;;;34.33;15.25;;;7.40;99.90;;;;;;6184593;23;20432;-79
2022/11/26 10:08:31;;;;;;;42.40;15.18;;;7.40;99.90;;;;;;6159988;23;20013;-79
2022/11/26 10:11:29;;;;;;;37.13;15.32;;;7.40;99.90;;;;;;6186429;23;20025;-79
2022/11/26 10:14:06;;;;;;;42.72;14.73;;;7.40;99.90;;;;;;6153026;23;20053;-79
2022/11/26 10:16:42;;;;;;;32.15;14.63;;;7.40;99.90;;;;;;6185971;23;20067;-79
2022/11/26 10:19:17;;;;;;;38.30;15.25;;;7.50;99.90;;;;;;6160247;23;20048;-79
2022/11/26 10:21:47;;;;;;;34.78;15.10;;;7.40;99.90;;;;;;6159525;23;20071;-79
2022/11/26 10:24:31;;;;;;;42.10;15.95;;;7.50;99.90;;;;;;6186307;23;20028;-79
2022/11/26 10:27:02;;;;;;;41.42;17.40;;;7.50;99.90;;;;;;6186739;23;20013;-79
2022/11/26 10:29:38;;;;;;;39.70;16.00;;;7.50;99.90;;;;;;6186510;23;20350;-79
2022/11/26 10:32:15;;;;;;;43.72;16.70;;;7.60;99.90;;;;;;6186375;23;20017;-79
2022/11/26 10:34:48;;;;;;;41.42;16.75;;;7.60;99.90;;;;;;6159548;23;20342;-79
2022/11/26 10:37:14;;;;;;;42.90;16.13;;;7.60;99.90;;;;;;6185956;23;20438;-79
2022/11/26 10:39:40;;;;;;;34.63;15.88;;;7.60;99.90;;;;;;6186587;23;20028;-80
2022/11/26 10:42:17;;;;;;;35.65;14.60;;;7.70;99.90;;;;;;6186592;23;20017;-81
2022/11/26 10:44:43;;;;;;;38.47;17.00;;;7.70;99.90;;;;;;6186648;23;20016;-79
2022/11/26 10:47:25;;;;;;;38.88;16.48;;;7.80;99.90;;;;;;6186178;23;20021;-79
2022/11/26 10:49:55;;;;;;;44.70;16.10;;;7.80;99.90;;;;;;6186547;23;20009;-80
2022/11/26 10:52:25;;;;;;;43.75;16.45;;;7.90;99.90;;;;;;6186127;23;20458;-79
2022/11/26 10:55:22;;;;;;;37.42;15.98;;;7.80;99.90;;;;;;6159908;23;20028;-80
2022/11/26 10:57:52;;;;;;;45.28;17.85;;;7.90;99.90;;;;;;6186032;23;20457;-79
2022/11/26 11:00:44;;;;;;;45.70;17.02;;;7.90;99.90;;;;;;6159779;23;20017;-84
2022/11/26 11:03:31;;;;;;;34.10;15.67;;;8.00;99.90;;;;;;6186079;23;20338;-81
2022/11/26 11:06:19;;;;;;;37.53;17.05;;;8.00;99.90;;;;;;6159635;23;20025;-80
2022/11/26 11:08:49;;;;;;;35.47;16.50;;;8.00;99.90;;;;;;6159292;23;20021;-80
2022/11/26 11:11:27;;;;;;;45.22;18.23;;;8.00;99.90;;;;;;6186427;23;20021;-82
2022/11/26 11:13:53;;;;;;;41.65;17.00;;;8.00;99.90;;;;;;6159365;23;20017;-80
2022/11/26 11:16:29;;;;;;;37.47;16.63;;;8.10;99.90;;;;;;6185732;23;20013;-80
2022/11/26 11:19:00;;;;;;;38.03;15.85;;;8.20;99.90;;;;;;6186025;23;20077;-80
2022/11/26 11:21:34;;;;;;;42.90;17.58;;;8.20;99.90;;;;;;6185620;23;20067;-81
2022/11/26 11:24:17;;;;;;;36.22;15.05;;;8.20;99.90;;;;;;6186111;23;20020;-79
2022/11/26 11:26:47;;;;;;;;;;;8.20;99.90;;;;;;6186385;23;20017;-82
2022/11/26 11:29:27;;;;;;;40.13;16.00;;;8.30;99.90;;;;;;6186009;23;19940;-80
2022/11/26 11:31:54;;;;;;;37.55;16.90;;;8.30;99.90;;;;;;6186124;23;20013;-80
2022/11/26 11:34:31;;;;;;;46.85;16.30;;;8.30;99.90;;;;;;6185562;23;20373;-81
2022/11/26 11:37:13;;;;;;;36.13;16.05;;;8.40;99.90;;;;;;6186191;23;20020;-80
2022/11/26 11:39:39;;;;;;;35.72;15.88;;;8.30;99.90;;;;;;6185889;23;20025;-79
2022/11/26 11:42:31;;;;;;;45.88;17.00;;;8.30;99.90;;;;;;6186122;23;20020;-80
2022/11/26 11:44:58;;;;;;;39.33;16.45;;;8.30;99.90;;;;;;6158952;23;20028;-80
2022/11/26 11:47:33;;;;;;;30.17;15.25;;;8.40;99.90;;;;;;6185948;23;20048;-79
2022/11/26 11:50:04;;;;;;;37.22;16.48;;;8.40;99.90;;;;;;6159334;23;20442;-80
2022/11/26 11:52:48;;;;;;;40.60;17.50;;;8.30;99.90;;;;;;6185798;23;20378;-80
2022/11/26 11:55:35;;;;;;;52.33;18.40;;;8.40;99.90;;;;;;6159049;23;20457;-80
2022/11/26 11:58:09;;;;;;;47.40;16.50;;;8.40;99.90;;;;;;6159321;23;20033;-82
2022/11/26 12:00:54;;;;;;;43.42;17.77;;;8.50;99.90;;;;;;6185678;23;20079;-80
2022/11/26 12:03:25;;;;;;;46.78;18.02;;;8.50;99.90;;;;;;6186075;23;20013;-80
2022/11/26 12:06:17;;;;;;;34.38;17.50;;;8.60;99.90;;;;;;6185629;23;20315;-80
2022/11/26 12:08:54;;;;;;;45.10;16.90;;;8.60;99.90;;;;;;6185614;23;20100;-80
2022/11/26 12:11:34;;;;;;;46.13;16.15;;;8.50;99.90;;;;;;6159378;23;20056;-83
2022/11/26 12:14:23;;;;;;;44.95;18.48;;;8.60;99.90;;;;;;6186013;23;20013;-81
2022/11/26 12:16:53;;;;;;;38.42;16.83;;;8.60;99.90;;;;;;6185272;23;20023;-80
2022/11/26 12:19:53;;;;;;;38.78;15.80;;;8.70;99.90;;;;;;6185885;23;20357;-80
2022/11/26 12:22:27;;;;;;;37.22;16.10;;;8.70;99.90;;;;;;6160167;23;20021;-79
2022/11/26 12:25:25;;;;;;;37.20;15.90;;;8.70;99.90;;;;;;6187922;23;20047;-81
2022/11/26 12:27:55;;;;;;;38.38;16.70;;;8.80;99.90;;;;;;6150952;23;20465;-81
2022/11/26 12:30:26;;;;;;;42.97;17.02;;;8.70;99.90;;;;;;6187606;23;20029;-81
2022/11/26 12:32:56;;;;;;;44.35;17.15;;;8.70;99.90;;;;;;6187619;23;20084;-80
2022/11/26 12:35:34;;;;;;;37.28;15.55;;;8.70;99.90;;;;;;6187394;23;20085;-79
2022/11/26 12:38:06;;;;;;;45.50;16.75;;;8.70;99.90;;;;;;6187428;23;20349;-81
2022/11/26 12:41:05;;;;;;;43.83;17.63;;;8.70;99.90;;;;;;6187863;23;20094;-86
2022/11/26 12:44:01;;;;;;;51.33;17.70;;;8.70;99.90;;;;;;6186464;23;20013;-81
2022/11/26 12:46:38;;;;;;;46.03;16.48;;;8.70;99.90;;;;;;6161017;23;20083;-82
2022/11/26 12:49:35;;;;;;;35.65;16.25;;;8.70;99.90;;;;;;6187445;23;20028;-81
2022/11/26 12:52:12;;;;;;;37.85;15.48;;;8.60;99.90;;;;;;6187311;23;20021;-82
2022/11/26 12:54:48;;;;;;;45.20;15.50;;;8.70;99.90;;;;;;6160965;23;20013;-80